Time;durP1;ratioP1;P1;durP2;ratioP2;P2;SDS_P1;SDS_P2;PMS_P1;PMS_P2;Temp;Humidity;BMP_temperature;BMP_pressure;BME280_temperature;BME280_humidity;BME280_pressure;Samples;Min_cycle;Max_cycle;Signal;HPM_P1;HPM_P2
2022/01/17 00:00:31;;;;;;;11.57;7.20;;;4.50;99.90;;;;;;5044523;28;20198;-66
2022/01/17 00:03:00;;;;;;;15.20;8.35;;;4.50;99.90;;;;;;5040645;28;20769;-66
2022/01/17 00:05:27;;;;;;;10.40;8.45;;;4.50;99.90;;;;;;5044732;28;20228;-64
2022/01/17 00:07:54;;;;;;;11.45;7.78;;;4.50;99.90;;;;;;5044701;28;20198;-66
2022/01/17 00:10:21;;;;;;;10.55;9.43;;;4.50;99.90;;;;;;5045669;28;20222;-66
2022/01/17 00:12:50;;;;;;;8.80;6.53;;;4.50;99.90;;;;;;5043227;28;20260;-65
2022/01/17 00:15:23;;;;;;;13.40;7.70;;;4.60;99.90;;;;;;5050159;28;20215;-66
2022/01/17 00:17:56;;;;;;;14.77;7.93;;;4.50;99.90;;;;;;5048178;28;20194;-64
2022/01/17 00:20:26;;;;;;;13.63;8.38;;;4.60;99.90;;;;;;5047171;28;20348;-66
2022/01/17 00:22:54;;;;;;;8.20;6.20;;;4.50;99.90;;;;;;5045311;28;20230;-64
2022/01/17 00:25:21;;;;;;;13.90;7.85;;;4.50;99.90;;;;;;5046656;28;20232;-64
2022/01/17 00:27:48;;;;;;;12.57;8.43;;;4.50;99.90;;;;;;5046186;28;20271;-65
2022/01/17 00:30:15;;;;;;;14.25;7.53;;;4.50;99.90;;;;;;5040539;28;20423;-64
2022/01/17 00:32:42;;;;;;;8.77;6.35;;;4.50;99.90;;;;;;5060140;28;20218;-64
2022/01/17 00:35:09;;;;;;;9.65;5.97;;;4.50;99.90;;;;;;5050341;28;20276;-65
2022/01/17 00:37:38;;;;;;;9.00;5.90;;;4.50;99.90;;;;;;5047113;28;20283;-65
2022/01/17 00:40:06;;;;;;;7.60;6.35;;;4.50;99.90;;;;;;5047807;28;20256;-66
2022/01/17 00:42:33;;;;;;;11.77;6.53;;;4.50;99.90;;;;;;5037820;28;20229;-64
2022/01/17 00:45:01;;;;;;;6.32;5.55;;;4.50;99.90;;;;;;5046777;28;20201;-65
2022/01/17 00:47:28;;;;;;;13.90;8.55;;;4.50;99.90;;;;;;5044914;28;20202;-64
2022/01/17 00:49:54;;;;;;;11.13;7.50;;;4.40;99.90;;;;;;5047488;28;20640;-66
2022/01/17 00:52:21;;;;;;;15.82;7.75;;;4.50;99.90;;;;;;5041991;28;20372;-66
2022/01/17 00:54:49;;;;;;;11.95;8.77;;;4.50;99.90;;;;;;5046007;28;20271;-64
2022/01/17 00:57:16;;;;;;;10.70;5.75;;;4.50;99.90;;;;;;5042335;28;20206;-65
2022/01/17 00:59:42;;;;;;;7.78;6.07;;;4.50;99.90;;;;;;5035938;28;20203;-64
2022/01/17 01:02:09;;;;;;;7.45;6.70;;;4.50;99.90;;;;;;5037354;28;20217;-65
2022/01/17 01:04:36;;;;;;;10.80;7.50;;;4.50;99.90;;;;;;5049314;28;20214;-64
2022/01/17 01:07:02;;;;;;;8.20;5.47;;;4.50;99.90;;;;;;5044987;28;20264;-66
2022/01/17 01:09:34;;;;;;;12.20;6.72;;;4.50;99.90;;;;;;5045142;28;20280;-63
2022/01/17 01:12:03;;;;;;;10.88;7.13;;;4.50;99.90;;;;;;5035773;28;20305;-64
2022/01/17 01:14:30;;;;;;;13.57;9.68;;;4.50;99.90;;;;;;5045169;28;20236;-63
2022/01/17 01:16:58;;;;;;;10.25;8.40;;;4.50;99.90;;;;;;5053370;28;20213;-65
2022/01/17 01:19:31;;;;;;;11.05;7.55;;;4.50;99.90;;;;;;5040608;28;20819;-65
2022/01/17 01:27:54;;;;;;;11.57;8.05;;;4.40;99.90;;;;;;5046004;28;20209;-64
2022/01/17 01:30:23;;;;;;;10.35;7.30;;;4.40;99.90;;;;;;5046083;28;20225;-66
2022/01/17 01:32:53;;;;;;;15.48;7.53;;;4.40;99.90;;;;;;5048378;28;20242;-65
2022/01/17 01:35:23;;;;;;;10.68;9.25;;;4.40;99.90;;;;;;5049356;28;20289;-66
2022/01/17 01:37:50;;;;;;;12.55;6.13;;;4.40;99.90;;;;;;5048192;28;20234;-64
2022/01/17 01:40:19;;;;;;;12.57;8.40;;;4.40;99.90;;;;;;5058498;28;20208;-64
2022/01/17 01:42:48;;;;;;;12.43;8.23;;;4.40;99.90;;;;;;5048746;28;20252;-66
2022/01/17 01:45:15;;;;;;;14.90;7.60;;;4.40;99.90;;;;;;5049647;28;20214;-64
2022/01/17 01:47:42;;;;;;;13.88;9.48;;;4.40;99.90;;;;;;5042907;28;20643;-65
2022/01/17 01:50:11;;;;;;;14.63;8.70;;;4.40;99.90;;;;;;5048953;28;20206;-65
2022/01/17 01:52:41;;;;;;;11.02;8.32;;;4.40;99.90;;;;;;5049381;28;20222;-65
2022/01/17 01:55:10;;;;;;;12.60;8.32;;;4.40;99.90;;;;;;5048291;28;20288;-65
2022/01/17 01:57:36;;;;;;;15.32;10.15;;;4.40;99.90;;;;;;5045284;28;20208;-65
2022/01/17 02:00:07;;;;;;;14.55;8.25;;;4.40;99.90;;;;;;5045307;28;20268;-63
2022/01/17 02:02:34;;;;;;;14.38;8.55;;;4.40;99.90;;;;;;5045427;28;20225;-65
2022/01/17 02:05:02;;;;;;;11.57;7.15;;;4.40;99.90;;;;;;5049905;28;20208;-65
2022/01/17 02:07:28;;;;;;;13.60;8.55;;;4.50;99.90;;;;;;5048665;28;20685;-64
2022/01/17 02:09:55;;;;;;;12.82;6.82;;;4.50;99.90;;;;;;5049868;28;20199;-65
2022/01/17 02:12:23;;;;;;;14.13;9.85;;;4.50;99.90;;;;;;5047439;28;20226;-65
2022/01/17 02:14:50;;;;;;;13.63;9.23;;;4.50;99.90;;;;;;5041102;28;20268;-65
2022/01/17 02:17:20;;;;;;;12.27;8.23;;;4.50;99.90;;;;;;5048931;28;20689;-65
2022/01/17 02:19:51;;;;;;;13.38;8.85;;;4.50;99.90;;;;;;5042822;28;20592;-66
2022/01/17 02:22:17;;;;;;;14.13;10.68;;;4.50;99.90;;;;;;5049844;28;20229;-63
2022/01/17 02:24:44;;;;;;;12.40;7.43;;;4.50;99.90;;;;;;5049311;28;20355;-64
2022/01/17 02:27:11;;;;;;;15.68;9.07;;;4.60;99.90;;;;;;5047895;28;20692;-64
2022/01/17 02:29:37;;;;;;;17.30;11.07;;;4.60;99.90;;;;;;5049413;28;20206;-66
2022/01/17 02:32:05;;;;;;;10.43;7.10;;;4.60;99.90;;;;;;5044057;28;20321;-64
2022/01/17 02:34:31;;;;;;;14.65;8.65;;;4.60;99.90;;;;;;5054365;28;20337;-65
2022/01/17 02:36:59;;;;;;;11.73;8.52;;;4.60;99.90;;;;;;5067805;28;20206;-65
2022/01/17 02:39:26;;;;;;;10.93;7.40;;;4.60;99.90;;;;;;5065338;28;20218;-64
2022/01/17 02:41:52;;;;;;;15.10;8.13;;;4.60;99.90;;;;;;5055828;28;20262;-63
2022/01/17 02:44:19;;;;;;;16.70;9.43;;;4.70;99.90;;;;;;5046890;28;20264;-66
2022/01/17 02:46:46;;;;;;;12.80;9.70;;;4.70;99.90;;;;;;5042013;28;20210;-66
2022/01/17 02:49:12;;;;;;;13.82;9.90;;;4.70;99.90;;;;;;5039034;28;20291;-65
2022/01/17 02:51:40;;;;;;;18.10;9.60;;;4.70;99.90;;;;;;5044660;28;20229;-66
2022/01/17 02:54:08;;;;;;;12.13;9.52;;;4.70;99.90;;;;;;5046454;28;20198;-65
2022/01/17 02:56:34;;;;;;;14.30;11.13;;;4.70;99.90;;;;;;5042550;28;20210;-65
2022/01/17 02:59:01;;;;;;;12.60;9.20;;;4.70;99.90;;;;;;5042963;28;20210;-65
2022/01/17 03:01:29;;;;;;;11.93;8.73;;;4.70;99.90;;;;;;5041677;28;20619;-66
2022/01/17 03:03:56;;;;;;;15.55;9.77;;;4.80;99.90;;;;;;5044610;28;20694;-63
2022/01/17 03:06:23;;;;;;;13.80;11.30;;;4.80;99.90;;;;;;5044600;28;20198;-63
2022/01/17 03:08:50;;;;;;;16.02;11.63;;;4.80;99.90;;;;;;5046366;28;20280;-64
2022/01/17 03:11:23;;;;;;;16.95;10.88;;;4.80;99.90;;;;;;5046861;28;20317;-63
2022/01/17 03:13:51;;;;;;;15.07;10.25;;;4.80;99.90;;;;;;5047906;28;20637;-64
2022/01/17 03:16:22;;;;;;;17.63;9.20;;;4.80;99.90;;;;;;5047552;28;20220;-64
2022/01/17 03:18:51;;;;;;;12.45;9.15;;;4.80;99.90;;;;;;5041715;28;20210;-64
2022/01/17 03:21:18;;;;;;;21.70;9.45;;;4.80;99.90;;;;;;5047360;28;20305;-63
2022/01/17 03:23:47;;;;;;;14.00;8.32;;;4.80;99.90;;;;;;5051001;28;20210;-63
2022/01/17 03:26:13;;;;;;;18.83;11.40;;;4.80;99.90;;;;;;5040715;28;20252;-63
2022/01/17 03:28:41;;;;;;;12.50;9.43;;;4.90;99.90;;;;;;5039952;28;20218;-64
2022/01/17 03:31:09;;;;;;;11.00;8.50;;;4.90;99.90;;;;;;5045022;28;20339;-65
2022/01/17 03:33:37;;;;;;;12.85;9.98;;;4.90;99.90;;;;;;5047662;28;20252;-64
2022/01/17 03:36:05;;;;;;;10.50;7.75;;;4.90;99.90;;;;;;5045580;28;20271;-63
2022/01/17 03:38:33;;;;;;;12.25;9.10;;;4.90;99.90;;;;;;5038844;28;20287;-63
2022/01/17 03:41:02;;;;;;;20.90;11.52;;;4.90;99.90;;;;;;5047973;28;20230;-63
2022/01/17 03:43:28;;;;;;;16.45;10.80;;;4.90;99.90;;;;;;5041914;28;20537;-64
2022/01/17 03:45:57;;;;;;;12.45;10.25;;;4.90;99.90;;;;;;5048068;28;20206;-64
2022/01/17 03:48:24;;;;;;;13.55;9.32;;;4.90;99.90;;;;;;5046470;28;20206;-65
2022/01/17 03:50:51;;;;;;;14.50;10.18;;;4.90;99.90;;;;;;5041743;28;20203;-64
2022/01/17 03:53:18;;;;;;;15.18;10.52;;;4.90;99.90;;;;;;5046302;28;20680;-64
2022/01/17 03:55:45;;;;;;;14.40;11.00;;;4.90;99.90;;;;;;5045111;28;20314;-63
2022/01/17 03:58:11;;;;;;;17.40;11.88;;;5.00;99.90;;;;;;5046536;28;20206;-62
2022/01/17 04:00:43;;;;;;;13.10;10.95;;;5.00;99.90;;;;;;5046491;28;20198;-65
2022/01/17 04:03:12;;;;;;;11.38;9.77;;;5.00;99.90;;;;;;5040471;28;20226;-64
2022/01/17 04:05:39;;;;;;;17.10;10.98;;;5.00;99.90;;;;;;5049363;28;20283;-64
2022/01/17 04:08:06;;;;;;;12.75;8.88;;;5.00;99.90;;;;;;5050726;28;20198;-64
2022/01/17 04:10:34;;;;;;;15.82;10.50;;;5.00;99.90;;;;;;5041836;28;20214;-64
2022/01/17 04:13:03;;;;;;;14.73;9.93;;;5.10;99.90;;;;;;5045502;28;20225;-64
2022/01/17 04:15:31;;;;;;;16.05;10.18;;;5.10;99.90;;;;;;5044246;28;20199;-64
2022/01/17 04:17:58;;;;;;;13.20;8.60;;;5.10;99.90;;;;;;5047980;28;20263;-64
2022/01/17 04:20:28;;;;;;;13.77;9.93;;;5.10;99.90;;;;;;5044646;28;20271;-64
2022/01/17 04:22:55;;;;;;;14.55;10.60;;;5.10;99.90;;;;;;5040711;28;20348;-64
2022/01/17 04:25:24;;;;;;;16.80;12.38;;;5.00;99.90;;;;;;5046424;28;20272;-63
2022/01/17 04:27:50;;;;;;;12.77;10.60;;;5.00;99.90;;;;;;5046117;28;20248;-64
2022/01/17 04:30:18;;;;;;;10.75;8.05;;;5.00;99.90;;;;;;5044092;28;20213;-64
2022/01/17 04:32:45;;;;;;;16.30;9.25;;;5.00;99.90;;;;;;5045813;28;20291;-64
2022/01/17 04:35:14;;;;;;;19.83;11.68;;;5.00;99.90;;;;;;5038251;28;20263;-64
2022/01/17 04:37:42;;;;;;;16.00;9.70;;;5.00;99.90;;;;;;5038673;28;20248;-64
2022/01/17 04:40:10;;;;;;;19.75;9.35;;;5.00;99.90;;;;;;5046584;28;20287;-64
2022/01/17 04:42:43;;;;;;;14.18;9.75;;;5.00;99.90;;;;;;5044492;28;20640;-64
2022/01/17 04:45:13;;;;;;;17.05;10.18;;;5.00;99.90;;;;;;5045829;28;20202;-65
2022/01/17 04:47:42;;;;;;;14.57;10.00;;;5.00;99.90;;;;;;5052926;28;20202;-65
2022/01/17 04:50:12;;;;;;;10.73;6.82;;;5.00;99.90;;;;;;5046609;28;20213;-64
2022/01/17 04:52:38;;;;;;;14.65;11.15;;;5.00;99.90;;;;;;5049476;28;20230;-65
2022/01/17 04:55:09;;;;;;;15.32;9.40;;;5.00;99.90;;;;;;5050972;28;20202;-64
2022/01/17 04:57:36;;;;;;;18.25;9.77;;;4.90;99.90;;;;;;5048246;28;20233;-65
2022/01/17 05:00:05;;;;;;;15.65;9.35;;;5.00;99.90;;;;;;5049211;28;20228;-64
2022/01/17 05:02:32;;;;;;;17.05;10.95;;;5.00;99.90;;;;;;5043046;28;20230;-64
2022/01/17 05:04:58;;;;;;;13.30;8.88;;;5.00;99.90;;;;;;5043392;28;20287;-65
2022/01/17 05:07:25;;;;;;;11.57;8.65;;;5.00;99.90;;;;;;5050704;28;20279;-64
2022/01/17 05:09:53;;;;;;;19.55;9.85;;;5.00;99.90;;;;;;5049355;28;20740;-64
2022/01/17 05:12:21;;;;;;;18.08;11.65;;;5.10;99.90;;;;;;5046937;28;20302;-64
2022/01/17 05:14:50;;;;;;;17.00;9.50;;;5.10;99.90;;;;;;5048518;28;20206;-63
2022/01/17 05:17:37;;;;;;;14.68;8.85;;;5.00;99.90;;;;;;5057296;28;20221;-66
2022/01/17 05:20:07;;;;;;;13.63;8.85;;;5.10;99.90;;;;;;5057483;28;20540;-64
2022/01/17 05:22:36;;;;;;;12.48;7.03;;;5.10;99.90;;;;;;5059894;28;20655;-65
2022/01/17 05:25:06;;;;;;;14.48;8.13;;;5.10;99.90;;;;;;5055707;28;20198;-64
2022/01/17 05:27:35;;;;;;;15.32;8.18;;;5.10;99.90;;;;;;5055742;28;20207;-64
2022/01/17 05:30:01;;;;;;;9.77;7.97;;;5.10;99.90;;;;;;5059723;28;20194;-65
2022/01/17 05:32:28;;;;;;;10.50;8.02;;;5.10;99.90;;;;;;5057242;28;20222;-64
2022/01/17 05:34:55;;;;;;;14.38;9.15;;;5.20;99.90;;;;;;5051940;28;20546;-65
2022/01/17 05:37:21;;;;;;;12.40;8.60;;;5.10;99.90;;;;;;5049790;28;20709;-65
2022/01/17 05:39:48;;;;;;;13.43;11.13;;;5.10;99.90;;;;;;5055938;28;20202;-62
2022/01/17 05:42:17;;;;;;;26.70;11.18;;;5.20;99.90;;;;;;5066094;28;20214;-63
2022/01/17 05:44:46;;;;;;;12.48;8.02;;;5.10;99.90;;;;;;5068325;28;20194;-64
2022/01/17 05:47:12;;;;;;;15.27;10.13;;;5.10;99.90;;;;;;5071541;28;20202;-63
2022/01/17 05:49:39;;;;;;;11.48;8.60;;;5.20;99.90;;;;;;5051617;28;20233;-63
2022/01/17 05:52:07;;;;;;;17.38;9.75;;;5.10;99.90;;;;;;5060402;28;20222;-63
2022/01/17 05:54:34;;;;;;;15.98;9.32;;;5.10;99.90;;;;;;5051225;28;20212;-65
2022/01/17 05:57:00;;;;;;;17.42;8.98;;;5.00;99.90;;;;;;5062408;28;20617;-63
2022/01/17 05:59:27;;;;;;;14.32;9.23;;;5.00;99.90;;;;;;5050673;28;20221;-63
2022/01/17 06:01:55;;;;;;;12.27;9.73;;;5.00;99.90;;;;;;5054988;28;20335;-64
2022/01/17 06:04:22;;;;;;;12.77;10.45;;;5.00;99.90;;;;;;5063877;28;20394;-64
2022/01/17 06:06:49;;;;;;;11.73;8.63;;;5.10;99.90;;;;;;5058936;28;20201;-64
2022/01/17 06:09:16;;;;;;;11.27;7.65;;;5.10;99.90;;;;;;5045399;28;20210;-64
2022/01/17 06:11:43;;;;;;;15.93;8.23;;;5.10;99.90;;;;;;5045101;28;20226;-64
2022/01/17 06:14:15;;;;;;;15.05;8.25;;;5.10;99.90;;;;;;5048295;28;20237;-67
2022/01/17 06:16:42;;;;;;;13.20;8.82;;;5.10;99.90;;;;;;5049570;28;20217;-64
2022/01/17 06:19:10;;;;;;;10.63;8.52;;;5.00;99.90;;;;;;5049872;28;20422;-65
2022/01/17 06:21:36;;;;;;;14.25;8.60;;;5.10;99.90;;;;;;5049392;28;20222;-65
2022/01/17 06:24:05;;;;;;;14.57;9.93;;;5.10;99.90;;;;;;5050406;28;20194;-64
2022/01/17 06:26:32;;;;;;;11.00;6.40;;;5.10;99.90;;;;;;5051970;28;20206;-64
2022/01/17 06:28:59;;;;;;;11.30;8.52;;;5.10;99.90;;;;;;5050001;28;20210;-63
2022/01/17 06:31:26;;;;;;;11.98;8.13;;;5.10;99.90;;;;;;5049338;28;20311;-64
2022/01/17 06:33:52;;;;;;;12.90;8.15;;;5.20;99.90;;;;;;5049577;28;20372;-64
2022/01/17 06:36:21;;;;;;;14.18;8.70;;;5.20;99.90;;;;;;5052923;28;20210;-64
2022/01/17 06:38:49;;;;;;;13.90;7.70;;;5.30;99.90;;;;;;5053099;28;20198;-64
2022/01/17 06:41:16;;;;;;;14.30;8.30;;;5.20;99.90;;;;;;5050360;28;20293;-64
2022/01/17 06:43:43;;;;;;;13.38;7.82;;;5.30;99.90;;;;;;5048712;28;20679;-64
2022/01/17 06:46:10;;;;;;;9.95;7.57;;;5.20;99.90;;;;;;5046881;28;20198;-64
2022/01/17 06:48:36;;;;;;;13.77;7.97;;;5.30;99.90;;;;;;5048897;28;20198;-65
2022/01/17 06:51:03;;;;;;;11.10;7.45;;;5.30;99.90;;;;;;5049460;28;20206;-64
2022/01/17 06:53:31;;;;;;;12.07;7.80;;;5.30;99.90;;;;;;5055184;28;20221;-64
2022/01/17 06:55:59;;;;;;;10.70;8.27;;;5.30;99.90;;;;;;5047408;28;20206;-64
2022/01/17 06:58:27;;;;;;;9.60;6.63;;;5.30;99.90;;;;;;5043330;28;20221;-63
2022/01/17 07:00:54;;;;;;;7.70;6.95;;;5.30;99.90;;;;;;5048998;28;20215;-63
2022/01/17 07:03:21;;;;;;;14.43;7.90;;;5.40;99.90;;;;;;5050589;28;20363;-64
2022/01/17 07:05:49;;;;;;;13.48;7.65;;;5.40;99.90;;;;;;5065190;28;20198;-66
2022/01/17 07:08:15;;;;;;;12.15;7.53;;;5.40;99.90;;;;;;5057365;28;20269;-64
2022/01/17 07:10:43;;;;;;;9.52;6.07;;;5.40;99.90;;;;;;5054688;28;20798;-63
2022/01/17 07:13:10;;;;;;;9.38;7.65;;;5.40;99.90;;;;;;5053456;28;20319;-64
2022/01/17 07:15:37;;;;;;;15.02;9.60;;;5.40;99.90;;;;;;5049657;28;20660;-65
2022/01/17 07:18:03;;;;;;;12.10;7.22;;;5.40;99.90;;;;;;5049281;28;20205;-64
2022/01/17 07:20:30;;;;;;;10.65;7.15;;;5.40;99.90;;;;;;5048128;28;20214;-63
2022/01/17 07:22:57;;;;;;;11.02;7.85;;;5.50;99.90;;;;;;5057610;28;20286;-66
2022/01/17 07:25:23;;;;;;;10.95;7.65;;;5.50;99.90;;;;;;5050327;28;20242;-65
2022/01/17 07:27:51;;;;;;;8.52;6.53;;;5.40;99.90;;;;;;5059308;28;20281;-65
2022/01/17 07:30:18;;;;;;;17.00;6.85;;;5.40;99.90;;;;;;5060468;28;20252;-65
2022/01/17 07:32:45;;;;;;;10.15;6.43;;;5.40;99.90;;;;;;5057292;28;20328;-65
2022/01/17 07:35:11;;;;;;;12.50;7.53;;;5.40;99.90;;;;;;5058337;28;20228;-66
2022/01/17 07:37:38;;;;;;;12.55;6.63;;;5.40;99.90;;;;;;5052434;28;20206;-64
2022/01/17 07:40:06;;;;;;;7.75;4.57;;;5.50;99.90;;;;;;5050249;28;20221;-63
2022/01/17 07:42:33;;;;;;;12.35;7.53;;;5.50;99.90;;;;;;5049845;28;20230;-63
2022/01/17 07:45:09;;;;;;;9.70;6.80;;;5.50;99.90;;;;;;5056325;28;20210;-68
2022/01/17 07:47:43;;;;;;;9.82;7.28;;;5.50;99.90;;;;;;5048080;28;20618;-66
2022/01/17 07:50:14;;;;;;;9.10;7.05;;;5.50;99.90;;;;;;5048095;28;20278;-66
2022/01/17 07:52:41;;;;;;;9.20;5.97;;;5.50;99.90;;;;;;5048496;28;20229;-65
2022/01/17 07:55:08;;;;;;;8.73;6.40;;;5.50;99.90;;;;;;5049925;28;20263;-63
2022/01/17 07:57:34;;;;;;;11.80;8.43;;;5.50;99.90;;;;;;5048648;28;20202;-64
2022/01/17 08:00:04;;;;;;;13.90;8.18;;;5.60;99.90;;;;;;5054132;28;20201;-63
2022/01/17 08:02:32;;;;;;;13.52;8.07;;;5.60;99.90;;;;;;5039345;28;20596;-63
2022/01/17 08:04:58;;;;;;;12.18;6.60;;;5.60;99.90;;;;;;5061524;28;20233;-63
2022/01/17 08:07:25;;;;;;;25.13;7.78;;;5.60;99.90;;;;;;5050029;28;20205;-64
2022/01/17 08:09:52;;;;;;;11.23;6.78;;;5.60;99.90;;;;;;5053606;28;20209;-63
2022/01/17 08:12:18;;;;;;;12.90;8.25;;;5.60;99.90;;;;;;5048286;28;20234;-63
2022/01/17 08:14:45;;;;;;;8.75;7.28;;;5.60;99.90;;;;;;5048065;28;20230;-63
2022/01/17 08:17:13;;;;;;;12.40;6.45;;;5.60;99.90;;;;;;5057228;28;20209;-64
2022/01/17 08:19:40;;;;;;;12.40;6.40;;;5.60;99.90;;;;;;5052215;28;20618;-64
2022/01/17 08:22:08;;;;;;;11.32;6.15;;;5.70;99.90;;;;;;5047557;28;20295;-64
2022/01/17 08:24:35;;;;;;;10.77;8.20;;;5.70;99.90;;;;;;5061361;28;20202;-63
2022/01/17 08:27:02;;;;;;;9.73;5.85;;;5.80;99.90;;;;;;5059568;28;20278;-64
2022/01/17 08:29:29;;;;;;;11.98;7.70;;;6.00;99.90;;;;;;5053593;28;20264;-64
2022/01/17 08:31:58;;;;;;;10.23;6.97;;;6.00;99.90;;;;;;5046846;28;20225;-64
2022/01/17 08:34:26;;;;;;;13.82;11.30;;;6.00;99.90;;;;;;5047329;28;20239;-64
2022/01/17 08:36:54;;;;;;;8.68;7.78;;;6.00;99.90;;;;;;5057665;28;20675;-65
2022/01/17 08:39:20;;;;;;;11.45;7.53;;;6.00;99.90;;;;;;5049847;28;20209;-64
2022/01/17 08:41:47;;;;;;;11.43;7.30;;;6.00;99.90;;;;;;5045906;28;20739;-65
2022/01/17 08:44:15;;;;;;;7.90;6.00;;;6.00;99.90;;;;;;5055010;28;20194;-64
2022/01/17 08:46:42;;;;;;;14.38;7.25;;;6.00;99.90;;;;;;5054016;28;20721;-64
2022/01/17 08:49:09;;;;;;;9.45;6.72;;;6.10;99.90;;;;;;5047717;28;20667;-65
2022/01/17 08:51:37;;;;;;;13.20;7.22;;;6.10;99.90;;;;;;5061500;28;20229;-65
2022/01/17 08:54:05;;;;;;;14.68;7.05;;;6.10;99.90;;;;;;5048699;28;20229;-64
2022/01/17 08:56:31;;;;;;;10.23;6.70;;;6.10;99.90;;;;;;5048303;28;20214;-65
2022/01/17 08:58:58;;;;;;;13.75;8.52;;;6.10;99.90;;;;;;5055578;28;20202;-65
2022/01/17 09:01:26;;;;;;;9.70;5.93;;;6.10;99.90;;;;;;5052063;28;20222;-64
2022/01/17 09:03:53;;;;;;;8.98;7.28;;;6.20;99.90;;;;;;5048773;28;20247;-64
2022/01/17 09:06:20;;;;;;;12.10;6.38;;;6.20;99.90;;;;;;5056466;28;20232;-64
2022/01/17 09:08:48;;;;;;;11.63;7.68;;;6.20;99.90;;;;;;5055188;28;20555;-63
2022/01/17 09:11:14;;;;;;;8.85;7.95;;;6.20;99.90;;;;;;5048410;28;20279;-65
2022/01/17 09:13:42;;;;;;;11.50;7.65;;;6.10;99.90;;;;;;5047804;28;20449;-65
2022/01/17 09:16:09;;;;;;;8.15;6.90;;;6.10;99.90;;;;;;5048327;28;20297;-64
2022/01/17 09:18:36;;;;;;;10.00;8.02;;;6.10;99.90;;;;;;5047375;28;20308;-63
2022/01/17 09:21:05;;;;;;;10.52;6.65;;;6.10;99.90;;;;;;5052615;28;21048;-64
2022/01/17 09:23:31;;;;;;;23.00;9.70;;;6.00;99.90;;;;;;5054040;28;20671;-65
2022/01/17 09:25:59;;;;;;;10.23;7.97;;;6.00;99.90;;;;;;5048186;28;20260;-68
2022/01/17 09:28:26;;;;;;;13.20;9.07;;;6.00;99.90;;;;;;5045419;28;20264;-64
2022/01/17 09:30:53;;;;;;;13.63;7.80;;;6.10;99.90;;;;;;5044191;28;20240;-64
2022/01/17 09:33:21;;;;;;;11.68;7.25;;;6.10;99.90;;;;;;5050581;28;20232;-64
2022/01/17 09:35:47;;;;;;;14.27;8.73;;;6.10;99.90;;;;;;5054688;28;20719;-65
2022/01/17 09:38:14;;;;;;;10.40;8.07;;;6.10;99.90;;;;;;5048450;28;20197;-65
2022/01/17 09:40:41;;;;;;;9.85;7.78;;;6.10;99.90;;;;;;5050427;28;20277;-64
2022/01/17 09:43:09;;;;;;;14.82;9.07;;;6.10;99.90;;;;;;5071395;28;20366;-63
2022/01/17 09:45:36;;;;;;;12.80;8.00;;;6.10;99.90;;;;;;5084728;28;20217;-64
2022/01/17 09:48:05;;;;;;;17.48;8.57;;;6.20;99.90;;;;;;5065057;28;20205;-69
2022/01/17 09:50:35;;;;;;;16.50;9.02;;;6.30;99.90;;;;;;5051318;28;20278;-65
2022/01/17 09:53:03;;;;;;;13.40;8.38;;;6.50;99.90;;;;;;5057249;28;20226;-64
2022/01/17 09:55:31;;;;;;;13.20;8.00;;;6.70;99.90;;;;;;5050656;28;20233;-64
2022/01/17 09:58:03;;;;;;;11.93;8.90;;;6.80;99.90;;;;;;5050518;28;20276;-65
2022/01/17 10:00:33;;;;;;;10.77;7.82;;;6.90;99.90;;;;;;5059207;28;20272;-66
2022/01/17 10:03:05;;;;;;;16.45;9.88;;;6.90;99.90;;;;;;5050753;28;20252;-66
2022/01/17 10:05:32;;;;;;;14.40;8.30;;;6.90;99.90;;;;;;5060892;28;20198;-66
2022/01/17 10:08:04;;;;;;;12.40;8.35;;;6.90;99.90;;;;;;5052171;28;20302;-66
2022/01/17 10:10:49;;;;;;;16.73;10.45;;;6.90;99.90;;;;;;5061357;28;20558;-64
2022/01/17 10:13:20;;;;;;;8.95;8.05;;;6.80;99.90;;;;;;5050339;28;20236;-64
2022/01/17 10:16:06;;;;;;;11.55;9.00;;;6.80;99.90;;;;;;5052810;28;20653;-64
2022/01/17 10:18:36;;;;;;;14.93;7.93;;;6.70;99.90;;;;;;5051557;28;20284;-64
2022/01/17 10:21:07;;;;;;;13.05;8.20;;;6.60;99.90;;;;;;5068496;28;20205;-66
2022/01/17 10:23:47;;;;;;;15.13;9.63;;;6.60;99.90;;;;;;5062961;28;20202;-64
2022/01/17 10:26:36;;;;;;;11.32;7.65;;;6.50;99.90;;;;;;5066314;28;20301;-63
2022/01/17 10:29:31;;;;;;;16.73;7.88;;;6.50;99.90;;;;;;5060132;28;20221;-64
2022/01/17 10:34:54;;;;;;;7.40;5.88;;;6.40;99.90;;;;;;5073484;28;20231;-65
2022/01/17 10:37:23;;;;;;;12.68;7.60;;;6.40;99.90;;;;;;5058074;28;20684;-64
2022/01/17 10:39:59;;;;;;;12.15;7.20;;;6.40;99.90;;;;;;5050011;28;20253;-64
2022/01/17 10:42:28;;;;;;;12.65;8.90;;;6.40;99.90;;;;;;5049196;28;20267;-67
2022/01/17 10:45:03;;;;;;;11.52;8.02;;;6.50;99.90;;;;;;5047774;28;20284;-64
2022/01/17 10:47:32;;;;;;;8.93;7.68;;;6.50;99.90;;;;;;5059473;28;20679;-65
2022/01/17 10:50:02;;;;;;;14.63;9.10;;;6.70;99.90;;;;;;5060000;28;20202;-65
2022/01/17 10:52:34;;;;;;;13.32;8.38;;;6.90;99.90;;;;;;5064381;28;20238;-65
2022/01/17 10:55:05;;;;;;;15.32;9.27;;;7.10;99.90;;;;;;5069169;28;20695;-64
2022/01/17 10:57:35;;;;;;;12.15;8.30;;;7.20;99.90;;;;;;5060018;28;20201;-65
2022/01/17 11:00:08;;;;;;;10.65;8.27;;;7.20;99.90;;;;;;5053642;28;20319;-65
2022/01/17 11:02:36;;;;;;;10.57;9.15;;;7.30;99.90;;;;;;5047747;28;20312;-65
2022/01/17 11:05:06;;;;;;;8.98;7.57;;;7.20;99.90;;;;;;5051045;28;20206;-65
2022/01/17 11:07:39;;;;;;;13.07;9.15;;;7.20;99.90;;;;;;5056861;28;20828;-66
2022/01/17 11:10:08;;;;;;;10.07;7.45;;;7.10;99.90;;;;;;5054138;28;20198;-66
2022/01/17 11:12:35;;;;;;;15.88;8.98;;;7.10;99.90;;;;;;5050542;28;20241;-66
2022/01/17 11:15:02;;;;;;;10.45;8.23;;;7.10;99.90;;;;;;5052761;28;20316;-66
2022/01/17 11:17:34;;;;;;;11.30;7.80;;;7.00;99.90;;;;;;5059076;28;20213;-66
2022/01/17 11:20:06;;;;;;;21.90;6.85;;;7.00;99.90;;;;;;5047827;28;20275;-65
2022/01/17 11:22:34;;;;;;;16.85;9.63;;;7.00;99.90;;;;;;5046795;28;20347;-65
2022/01/17 11:25:01;;;;;;;12.55;8.05;;;6.90;99.90;;;;;;5049584;28;20202;-65
2022/01/17 11:27:28;;;;;;;13.82;8.77;;;6.70;99.90;;;;;;5053249;28;20202;-65
2022/01/17 11:29:56;;;;;;;9.82;8.73;;;6.60;99.90;;;;;;5048727;28;20753;-65
2022/01/17 11:32:23;;;;;;;9.70;6.70;;;6.50;99.90;;;;;;5048991;28;20309;-64
2022/01/17 11:34:51;;;;;;;22.65;7.88;;;6.50;99.90;;;;;;5048521;28;20226;-66
2022/01/17 11:37:20;;;;;;;12.57;7.47;;;6.50;99.90;;;;;;5048400;28;20206;-67
2022/01/17 11:39:49;;;;;;;10.38;7.63;;;6.40;99.90;;;;;;5041362;28;20663;-65
2022/01/17 11:42:37;;;;;;;10.52;7.47;;;6.40;99.90;;;;;;5040080;28;20230;-65
2022/01/17 11:45:37;;;;;;;8.05;6.60;;;6.30;99.90;;;;;;5043806;28;20289;-66
2022/01/17 11:48:06;;;;;;;14.02;6.68;;;6.30;99.90;;;;;;5048106;28;20213;-65
2022/01/17 11:50:47;;;;;;;10.75;9.40;;;6.30;99.90;;;;;;5051689;28;20209;-65
2022/01/17 11:53:52;;;;;;;10.85;7.50;;;6.30;99.90;;;;;;5048582;28;20288;-65
2022/01/17 11:56:40;;;;;;;11.40;8.10;;;6.30;99.90;;;;;;5057528;28;20658;-66
2022/01/17 11:59:40;;;;;;;8.80;5.57;;;6.30;99.90;;;;;;5059417;28;20238;-66
2022/01/17 12:02:33;;;;;;;11.88;9.00;;;6.30;99.90;;;;;;5046450;28;20272;-64
2022/01/17 12:05:32;;;;;;;12.25;10.57;;;6.30;99.90;;;;;;5055465;28;20202;-65
2022/01/17 12:07:58;;;;;;;10.80;8.27;;;6.30;99.90;;;;;;5048305;28;20550;-64
2022/01/17 12:10:27;;;;;;;8.52;7.32;;;6.30;99.90;;;;;;5054026;28;20377;-65
2022/01/17 12:13:35;;;;;;;11.00;7.50;;;6.30;99.90;;;;;;5055320;28;20232;-65
2022/01/17 12:16:07;;;;;;;13.50;7.35;;;6.30;99.90;;;;;;5042441;28;20237;-66
2022/01/17 12:18:35;;;;;;;11.00;6.55;;;6.30;99.90;;;;;;5054185;28;20283;-66
2022/01/17 12:21:19;;;;;;;7.85;7.15;;;6.20;99.90;;;;;;5054084;28;20680;-64
2022/01/17 12:23:45;;;;;;;10.88;9.80;;;6.30;99.90;;;;;;5047737;28;20659;-65
2022/01/17 12:26:27;;;;;;;8.77;6.90;;;6.20;99.90;;;;;;5058809;28;20206;-65
2022/01/17 12:28:57;;;;;;;15.77;10.43;;;6.30;99.90;;;;;;5058523;28;20210;-66
2022/01/17 12:31:41;;;;;;;10.98;7.53;;;6.30;99.90;;;;;;5071441;28;20230;-63
2022/01/17 12:34:16;;;;;;;16.23;7.10;;;6.30;99.90;;;;;;5058391;28;20205;-64
2022/01/17 12:36:46;;;;;;;10.73;8.05;;;6.30;99.90;;;;;;5055482;28;20626;-64
2022/01/17 12:39:15;;;;;;;8.65;7.60;;;6.30;99.90;;;;;;5055280;28;20239;-63
2022/01/17 12:41:44;;;;;;;12.50;9.13;;;6.30;99.90;;;;;;5058349;28;20274;-64
2022/01/17 12:44:18;;;;;;;13.93;8.60;;;6.30;99.90;;;;;;5044731;28;20683;-64
2022/01/17 12:46:47;;;;;;;12.45;6.95;;;6.30;99.90;;;;;;5061395;28;20243;-63
2022/01/17 12:49:15;;;;;;;10.23;7.25;;;6.30;99.90;;;;;;5055609;28;20198;-65
2022/01/17 12:51:43;;;;;;;10.52;7.38;;;6.30;99.90;;;;;;5051975;28;20221;-65
2022/01/17 12:54:11;;;;;;;9.95;8.07;;;6.40;99.90;;;;;;5058871;28;20271;-64
2022/01/17 12:56:42;;;;;;;11.55;7.72;;;6.40;99.90;;;;;;5049317;28;20198;-64
2022/01/17 12:59:09;;;;;;;12.85;7.97;;;6.40;99.90;;;;;;5053110;28;20216;-62
2022/01/17 13:01:43;;;;;;;15.10;9.43;;;6.40;99.90;;;;;;5044505;28;20224;-64
2022/01/17 13:04:11;;;;;;;12.02;7.22;;;6.40;99.90;;;;;;5047231;28;20206;-64
2022/01/17 13:06:39;;;;;;;9.75;8.80;;;6.40;99.90;;;;;;5054094;28;20236;-64